KP53

Munising Lakeshore Observation Airport

Michigan, USA
METAR KP53 261256Z AUTO VRB05KT 22/18 A2969 RMK AO1 SLP052 T02170183 $
Observed Flight Rules
May-26 @ 12:56 UTC (42 minutes ago)
Wind
Variable at 5 knots
Temperatures Readings
Current 22°C / 72°F
Dewpoint 18°C / 64°F
Humidity 78%
Altimeter 29.69" Hg
Pressure 1005.2 hPa
Elevation 187
METAR KP53 261256Z AUTO VRB05KT 22/18 A2969 RMK AO1 SLP052 T02170183 $
Observed Flight Rules
May-26 @ 12:56 UTC
(42 minutes ago)
Wind
Variable at 5 knots
Temperature Dewpoint
22°C / 72°F 18°C / 64°F
Humidity Altimeter Pressure
78% 29.69" Hg 1005.2 hPa